Time;durP1;ratioP1;P1;durP2;ratioP2;P2;SDS_P1;SDS_P2;PMS_P1;PMS_P2;Temp;Humidity;BMP_temperature;BMP_pressure;BME280_temperature;BME280_humidity;BME280_pressure;Samples;Min_cycle;Max_cycle;Signal;HPM_P1;HPM_P2
2021/12/10 00:02:12;;;;;;;24.30;17.30;;;22.10;51.70;;;;;;214420;1314;22633;-56
2021/12/10 00:07:23;;;;;;;23.60;17.50;;;22.00;51.90;;;;;;214494;1314;25146;-58
2021/12/10 00:12:48;;;;;;;22.60;16.50;;;22.10;51.80;;;;;;214469;1314;22585;-51
2021/12/10 00:17:57;;;;;;;25.40;17.40;;;22.50;51.00;;;;;;214470;1313;22664;-52
2021/12/10 00:23:07;;;;;;;24.40;17.10;;;22.70;50.10;;;;;;214434;1313;22576;-56
2021/12/10 00:28:25;;;;;;;23.50;16.30;;;22.90;49.60;;;;;;214607;1314;23380;-53
2021/12/10 00:33:37;;;;;;;21.90;16.70;;;23.10;49.30;;;;;;214538;1314;24383;-57
2021/12/10 00:38:41;;;;;;;26.40;17.40;;;23.20;48.90;;;;;;214400;1314;22600;-52
2021/12/10 00:43:48;;;;;;;22.20;15.60;;;23.30;48.70;;;;;;214464;1314;25313;-54
2021/12/10 00:48:52;;;;;;;20.50;15.10;;;23.30;48.60;;;;;;214525;1310;25248;-56
2021/12/10 00:53:57;;;;;;;23.90;16.50;;;23.30;48.40;;;;;;214462;1313;23212;-53
2021/12/10 00:59:04;;;;;;;21.40;16.00;;;23.30;48.20;;;;;;214414;1314;24339;-54
2021/12/10 01:04:19;;;;;;;20.90;15.90;;;23.30;48.20;;;;;;214461;1313;22571;-54
2021/12/10 01:09:32;;;;;;;22.30;15.80;;;23.30;48.20;;;;;;214344;1314;22555;-54
2021/12/10 01:25:35;;;;;;;21.40;15.60;;;23.30;48.10;;;;;;214425;1316;24323;-54
2021/12/10 01:30:41;;;;;;;20.70;15.60;;;23.30;48.10;;;;;;214460;1313;24402;-56
2021/12/10 01:35:56;;;;;;;21.50;15.70;;;23.30;48.00;;;;;;214481;1314;22800;-52
2021/12/10 01:41:01;;;;;;;20.30;15.90;;;23.40;48.20;;;;;;214461;1314;26762;-53
2021/12/10 01:46:18;;;;;;;20.60;15.30;;;23.40;48.00;;;;;;214288;1309;24309;-51
2021/12/10 01:51:31;;;;;;;22.30;15.90;;;23.40;48.00;;;;;;214436;1309;25271;-52
2021/12/10 01:56:42;;;;;;;21.30;15.70;;;23.40;47.80;;;;;;214446;1309;24239;-55
2021/12/10 02:01:52;;;;;;;19.60;14.80;;;23.50;47.80;;;;;;214429;1309;22725;-54
2021/12/10 02:07:01;;;;;;;19.60;14.90;;;23.60;47.40;;;;;;214540;1313;22556;-53
2021/12/10 02:12:07;;;;;;;19.70;15.40;;;23.60;47.40;;;;;;214481;1313;24244;-55
2021/12/10 02:17:12;;;;;;;21.30;16.10;;;23.60;47.20;;;;;;214470;1313;24294;-56
2021/12/10 02:22:15;;;;;;;20.70;15.30;;;23.60;47.10;;;;;;214510;1314;24248;-52
2021/12/10 02:27:19;;;;;;;18.50;14.40;;;23.70;47.40;;;;;;214556;1313;24244;-57
2021/12/10 02:32:26;;;;;;;18.50;14.60;;;23.60;47.20;;;;;;214445;1314;25594;-53
2021/12/10 02:37:29;;;;;;;21.20;14.90;;;23.60;47.20;;;;;;214486;1314;22669;-54
2021/12/10 02:42:33;;;;;;;19.20;15.30;;;23.60;47.10;;;;;;214424;1312;25451;-56
2021/12/10 02:47:37;;;;;;;22.60;15.70;;;23.60;47.50;;;;;;214363;1315;26916;-53
2021/12/10 02:52:41;;;;;;;18.60;14.70;;;23.60;47.20;;;;;;214509;1314;25447;-57
2021/12/10 02:57:48;;;;;;;19.20;14.80;;;23.60;47.10;;;;;;214628;1316;22641;-54
2021/12/10 03:02:56;;;;;;;20.10;14.70;;;23.60;47.10;;;;;;214581;1314;24323;-54
2021/12/10 03:08:00;;;;;;;20.30;15.20;;;23.60;47.10;;;;;;214404;1314;22860;-50
2021/12/10 03:13:05;;;;;;;20.50;15.70;;;23.60;47.10;;;;;;214395;1314;22583;-54
2021/12/10 03:18:19;;;;;;;20.70;14.90;;;23.60;47.20;;;;;;214459;1313;22637;-52
2021/12/10 03:23:23;;;;;;;20.80;15.10;;;23.60;47.10;;;;;;214596;1314;25303;-56
2021/12/10 03:28:26;;;;;;;19.40;14.70;;;23.60;47.10;;;;;;214518;1314;24248;-55
2021/12/10 03:33:30;;;;;;;20.70;15.10;;;23.70;47.00;;;;;;214350;1315;24312;-57
2021/12/10 03:38:35;;;;;;;19.50;14.90;;;23.80;46.80;;;;;;214421;1315;25536;-53
2021/12/10 03:43:43;;;;;;;22.90;15.20;;;23.80;46.60;;;;;;214439;1313;24276;-51
2021/12/10 03:48:47;;;;;;;18.80;15.30;;;23.80;46.50;;;;;;214600;1314;22581;-51
2021/12/10 03:53:51;;;;;;;20.20;14.90;;;23.80;46.60;;;;;;214471;1314;24313;-53
2021/12/10 03:58:59;;;;;;;19.10;15.00;;;23.70;46.60;;;;;;214491;1314;24235;-55
2021/12/10 04:04:07;;;;;;;20.20;14.90;;;23.70;46.60;;;;;;214513;1314;22636;-53
2021/12/10 04:09:11;;;;;;;19.60;14.50;;;23.70;46.60;;;;;;214563;1314;25560;-55
2021/12/10 04:14:15;;;;;;;18.60;14.30;;;23.70;46.70;;;;;;214582;1313;22934;-52
2021/12/10 04:19:19;;;;;;;19.30;15.00;;;23.70;46.70;;;;;;214449;1314;22589;-55
2021/12/10 04:24:26;;;;;;;20.90;15.00;;;23.70;46.80;;;;;;214512;1314;22712;-52
2021/12/10 04:29:30;;;;;;;22.30;15.50;;;23.70;46.70;;;;;;214717;1313;22561;-53
2021/12/10 04:34:35;;;;;;;19.20;15.20;;;23.70;47.00;;;;;;214735;1314;22663;-55
2021/12/10 04:39:45;;;;;;;18.80;14.50;;;23.70;46.70;;;;;;214505;1313;22669;-54
2021/12/10 04:44:54;;;;;;;21.50;15.10;;;23.80;46.80;;;;;;214677;1314;26581;-52
2021/12/10 04:49:58;;;;;;;19.60;15.10;;;23.70;47.10;;;;;;214530;1313;22574;-55
2021/12/10 04:55:06;;;;;;;21.10;14.80;;;23.80;46.80;;;;;;214494;1313;22633;-53
2021/12/10 05:00:25;;;;;;;19.20;14.40;;;23.80;46.80;;;;;;214498;1314;22739;-54
2021/12/10 05:05:29;;;;;;;20.80;15.00;;;23.80;46.60;;;;;;214541;1313;22632;-54
2021/12/10 05:10:34;;;;;;;17.80;14.00;;;23.80;46.50;;;;;;214474;1313;22568;-54
2021/12/10 05:15:39;;;;;;;21.10;15.40;;;23.90;46.30;;;;;;214542;1313;22641;-53
2021/12/10 05:20:48;;;;;;;19.70;15.40;;;23.90;46.50;;;;;;214524;1313;24247;-54
2021/12/10 05:25:52;;;;;;;20.10;15.40;;;23.90;46.60;;;;;;214512;1312;25372;-56
2021/12/10 05:30:56;;;;;;;20.00;15.20;;;23.90;46.30;;;;;;214519;1312;25527;-53
2021/12/10 05:36:02;;;;;;;20.50;14.80;;;23.90;46.30;;;;;;214422;1315;22587;-55
2021/12/10 05:41:09;;;;;;;19.20;14.80;;;23.90;46.40;;;;;;214488;1313;24677;-53
2021/12/10 05:46:13;;;;;;;19.20;14.50;;;23.90;46.30;;;;;;214400;1315;23107;-52
2021/12/10 05:51:17;;;;;;;21.70;16.00;;;23.80;46.30;;;;;;214428;1314;24245;-51
2021/12/10 05:56:21;;;;;;;21.70;16.40;;;23.80;46.20;;;;;;214547;1313;24326;-53
2021/12/10 06:01:25;;;;;;;20.80;15.50;;;23.80;46.30;;;;;;214532;1311;22765;-52
2021/12/10 06:06:35;;;;;;;21.00;15.60;;;23.80;46.30;;;;;;214436;1312;22672;-55
2021/12/10 06:11:41;;;;;;;19.40;15.20;;;23.80;46.30;;;;;;214451;1313;22653;-54
2021/12/10 06:16:46;;;;;;;20.60;15.60;;;23.80;46.60;;;;;;214503;1313;25525;-55
2021/12/10 06:21:51;;;;;;;21.80;15.30;;;23.80;46.30;;;;;;214616;1312;22620;-51
2021/12/10 06:26:54;;;;;;;21.30;15.70;;;23.80;46.40;;;;;;214464;1312;22579;-55
2021/12/10 06:31:58;;;;;;;24.30;16.80;;;23.80;46.30;;;;;;214497;1311;23912;-51
2021/12/10 06:37:04;;;;;;;21.20;16.00;;;23.80;46.40;;;;;;214672;1306;22565;-55
2021/12/10 06:42:07;;;;;;;21.40;15.10;;;23.90;46.00;;;;;;214533;1312;22568;-55
2021/12/10 06:47:31;;;;;;;39.00;17.50;;;24.00;46.30;;;;;;214497;1309;24431;-55
2021/12/10 06:52:35;;;;;;;23.60;16.30;;;24.10;46.60;;;;;;214507;1310;22691;-52
2021/12/10 06:57:39;;;;;;;20.90;15.40;;;24.20;46.30;;;;;;214925;1313;22556;-51
2021/12/10 07:02:44;;;;;;;22.70;16.60;;;24.30;46.10;;;;;;214531;1313;23552;-55
2021/12/10 07:07:49;;;;;;;25.90;17.00;;;24.30;46.80;;;;;;214250;1313;25335;-53
2021/12/10 07:12:52;;;;;;;24.70;16.50;;;24.30;46.70;;;;;;214342;1306;24287;-54
2021/12/10 07:17:56;;;;;;;24.60;16.30;;;24.20;47.10;;;;;;214425;1313;25419;-56
2021/12/10 07:23:00;;;;;;;31.50;16.70;;;24.10;47.50;;;;;;214431;1306;25940;-55
2021/12/10 07:28:06;;;;;;;23.60;16.00;;;24.00;47.40;;;;;;214429;1313;22557;-56
2021/12/10 07:33:10;;;;;;;25.30;15.90;;;23.80;47.80;;;;;;214449;1306;22577;-52
2021/12/10 07:38:16;;;;;;;26.90;15.90;;;23.70;48.10;;;;;;214472;1306;25635;-51
2021/12/10 07:43:21;;;;;;;26.80;16.80;;;23.50;48.50;;;;;;216374;1313;25449;-54
2021/12/10 07:48:26;;;;;;;26.10;16.80;;;23.40;49.40;;;;;;214557;1313;25345;-52
2021/12/10 07:53:32;;;;;;;28.60;18.10;;;23.30;49.50;;;;;;214515;1310;23617;-50
2021/12/10 07:58:37;;;;;;;25.70;17.30;;;23.20;49.30;;;;;;214116;1311;164541;-51
2021/12/10 08:03:43;;;;;;;28.30;17.70;;;23.00;49.10;;;;;;214414;1313;26513;-52
2021/12/10 08:08:48;;;;;;;26.50;17.50;;;22.90;49.80;;;;;;214397;1312;23914;-51
2021/12/10 08:13:51;;;;;;;30.80;18.70;;;22.80;49.70;;;;;;214497;1315;22751;-51
2021/12/10 08:18:56;;;;;;;26.60;17.80;;;22.70;49.60;;;;;;214474;1314;22666;-53
2021/12/10 08:24:03;;;;;;;25.90;17.70;;;22.60;49.50;;;;;;214555;1313;24289;-52
2021/12/10 08:29:08;;;;;;;27.90;18.90;;;22.50;49.80;;;;;;214637;1313;23107;-52
2021/12/10 08:34:12;;;;;;;27.70;18.60;;;22.40;49.50;;;;;;214507;1313;24333;-52
2021/12/10 08:39:16;;;;;;;28.60;18.20;;;22.40;49.50;;;;;;214583;1313;24276;-54
2021/12/10 08:44:20;;;;;;;26.00;17.90;;;22.30;49.50;;;;;;214594;1313;25276;-52
2021/12/10 08:49:24;;;;;;;24.40;18.10;;;22.40;49.40;;;;;;214624;1313;23465;-52
2021/12/10 08:54:36;;;;;;;29.60;18.60;;;22.70;48.90;;;;;;214394;1316;22706;-52
2021/12/10 08:59:42;;;;;;;27.70;19.20;;;23.00;47.80;;;;;;214422;1309;22655;-51
2021/12/10 09:04:46;;;;;;;26.50;18.30;;;23.30;47.90;;;;;;214393;1315;24312;-52
2021/12/10 09:09:50;;;;;;;28.10;19.00;;;23.40;47.10;;;;;;214462;1309;24245;-53
2021/12/10 09:14:57;;;;;;;26.70;18.30;;;23.60;46.90;;;;;;214470;1314;22691;-52
2021/12/10 09:20:07;;;;;;;28.70;19.20;;;23.60;47.00;;;;;;214402;1314;22856;-52
2021/12/10 09:25:11;;;;;;;27.10;18.40;;;23.60;47.30;;;;;;214407;1314;25635;-52
2021/12/10 09:30:19;;;;;;;27.50;19.30;;;23.70;46.80;;;;;;214482;1315;22551;-51
2021/12/10 09:35:36;;;;;;;26.70;18.50;;;23.70;46.50;;;;;;214321;1315;25662;-52
2021/12/10 09:40:46;;;;;;;24.90;18.30;;;23.70;46.50;;;;;;214643;1316;24279;-55
2021/12/10 09:45:54;;;;;;;24.40;18.00;;;23.60;46.50;;;;;;214619;1314;25326;-51
2021/12/10 09:51:22;;;;;;;22.30;17.30;;;23.70;46.90;;;;;;214538;1313;25608;-52
2021/12/10 09:56:27;;;;;;;23.30;17.40;;;23.70;46.40;;;;;;214493;1313;25589;-51
2021/12/10 10:01:37;;;;;;;22.90;16.80;;;23.80;46.30;;;;;;214363;1315;24327;-53
2021/12/10 10:06:50;;;;;;;26.00;18.00;;;23.70;46.30;;;;;;214401;1314;22641;-51
2021/12/10 10:12:31;;;;;;;27.00;17.90;;;23.70;46.60;;;;;;214481;1313;25340;-52
2021/12/10 10:17:36;;;;;;;24.50;18.10;;;23.70;46.50;;;;;;214440;1314;22774;-54
2021/12/10 10:22:54;;;;;;;25.30;16.40;;;23.70;46.20;;;;;;214366;1315;24224;-52
2021/12/10 10:27:58;;;;;;;23.30;17.30;;;23.70;46.30;;;;;;214664;1313;22567;-50
2021/12/10 10:33:07;;;;;;;23.70;18.00;;;23.70;46.10;;;;;;214546;1315;22811;-52
2021/12/10 10:38:13;;;;;;;24.40;17.30;;;23.70;46.40;;;;;;214369;1314;25419;-52
2021/12/10 10:43:17;;;;;;;23.50;16.60;;;23.80;46.30;;;;;;214410;1315;24347;-50
2021/12/10 10:48:22;;;;;;;24.60;17.60;;;23.90;45.50;;;;;;214465;1316;22565;-51
2021/12/10 10:53:29;;;;;;;24.90;17.10;;;24.00;45.40;;;;;;214782;1312;22650;-53
2021/12/10 10:58:40;;;;;;;26.30;17.60;;;24.00;45.30;;;;;;214651;1313;22726;-52
2021/12/10 11:03:54;;;;;;;25.70;16.80;;;24.00;45.40;;;;;;214557;1313;24743;-52
2021/12/10 11:09:26;;;;;;;22.50;16.40;;;24.00;45.40;;;;;;214627;1313;24127;-55
2021/12/10 11:15:04;;;;;;;25.40;17.50;;;24.00;45.80;;;;;;214458;1311;24419;-52
2021/12/10 11:20:35;;;;;;;23.40;16.80;;;24.00;45.40;;;;;;214466;1306;22578;-52
2021/12/10 11:25:43;;;;;;;23.80;16.70;;;24.00;45.40;;;;;;214340;1306;22644;-56
2021/12/10 11:30:58;;;;;;;23.60;16.60;;;23.90;45.40;;;;;;214389;1306;24245;-56
2021/12/10 11:36:10;;;;;;;23.80;15.90;;;23.90;45.60;;;;;;214263;1312;22635;-51
2021/12/10 11:41:18;;;;;;;22.60;16.10;;;23.90;45.70;;;;;;214546;1306;22557;-53
2021/12/10 11:52:23;;;;;;;23.10;16.00;;;24.10;45.10;;;;;;214382;1315;25275;-55
2021/12/10 11:57:34;;;;;;;20.40;15.20;;;24.00;45.40;;;;;;214425;1306;24290;-53
2021/12/10 12:03:04;;;;;;;23.70;15.90;;;23.90;45.60;;;;;;214457;1311;22576;-54
2021/12/10 12:08:19;;;;;;;20.00;14.30;;;23.90;46.00;;;;;;214524;1313;22754;-57
2021/12/10 12:13:38;;;;;;;24.10;15.90;;;23.80;46.10;;;;;;214564;1313;25943;-56
2021/12/10 12:18:45;;;;;;;21.50;15.50;;;23.70;46.30;;;;;;214514;1313;24326;-54
2021/12/10 12:29:53;;;;;;;20.30;13.80;;;23.60;46.50;;;;;;214451;1306;22783;-55
2021/12/10 12:35:16;;;;;;;22.30;15.90;;;23.50;46.90;;;;;;214577;1313;24323;-54
2021/12/10 12:40:38;;;;;;;24.50;16.10;;;23.30;46.50;;;;;;214477;1312;22558;-55
2021/12/10 12:46:09;;;;;;;21.40;15.70;;;23.30;46.60;;;;;;214379;1313;26628;-54
2021/12/10 12:51:21;;;;;;;19.90;14.70;;;23.20;46.70;;;;;;214601;1311;22587;-56
2021/12/10 12:56:38;;;;;;;22.10;15.00;;;23.20;46.90;;;;;;214450;1313;25432;-56
2021/12/10 13:02:11;;;;;;;21.60;14.50;;;23.10;47.30;;;;;;214347;1315;24279;-55
2021/12/10 13:07:23;;;;;;;22.10;15.40;;;23.00;47.10;;;;;;214517;1309;22568;-51
2021/12/10 13:12:45;;;;;;;22.10;14.40;;;23.00;47.10;;;;;;214539;1313;25544;-52
2021/12/10 13:18:01;;;;;;;19.00;14.50;;;22.90;47.20;;;;;;214501;1312;22727;-52
2021/12/10 13:23:12;;;;;;;23.60;14.80;;;22.90;47.40;;;;;;214504;1306;23199;-52
2021/12/10 13:28:22;;;;;;;22.60;15.20;;;22.80;47.50;;;;;;214574;1313;22640;-54
2021/12/10 13:33:36;;;;;;;20.60;14.80;;;22.70;47.90;;;;;;214631;1313;22627;-53
2021/12/10 13:38:48;;;;;;;22.00;14.90;;;22.60;48.00;;;;;;214559;1313;22647;-57
2021/12/10 13:44:25;;;;;;;19.70;13.60;;;22.50;48.00;;;;;;214423;1306;22664;-54
2021/12/10 13:49:50;;;;;;;20.00;14.70;;;22.40;48.60;;;;;;214411;1313;24472;-55
2021/12/10 13:54:59;;;;;;;21.50;14.90;;;22.30;48.40;;;;;;214391;1307;22654;-53
2021/12/10 14:00:14;;;;;;;19.30;13.50;;;22.30;49.20;;;;;;214278;1306;25374;-53
2021/12/10 14:05:27;;;;;;;19.70;14.10;;;22.20;48.70;;;;;;214418;1311;22621;-52
2021/12/10 14:10:34;;;;;;;20.10;14.30;;;22.10;48.50;;;;;;214478;1309;25698;-51
2021/12/10 14:15:51;;;;;;;20.30;13.70;;;22.00;48.50;;;;;;214522;1313;25663;-51
2021/12/10 14:21:19;;;;;;;27.90;14.20;;;22.00;48.60;;;;;;214218;1309;25566;-54
2021/12/10 14:27:04;;;;;;;22.00;12.80;;;22.20;50.80;;;;;;214295;1309;24529;-52
2021/12/10 14:32:33;;;;;;;21.90;14.50;;;22.60;50.70;;;;;;214339;1313;22648;-53
2021/12/10 14:38:02;;;;;;;22.50;14.90;;;22.90;49.80;;;;;;214443;1315;22635;-55
2021/12/10 14:44:13;;;;;;;;;;;;;;;;;;;;;
2021/12/10 14:49:42;;;;;;;26.40;13.20;;;23.40;48.90;;;;;;214805;1315;24244;-51
2021/12/10 14:55:17;;;;;;;20.70;12.50;;;23.50;49.80;;;;;;214288;1315;22571;-51
2021/12/10 15:00:58;;;;;;;22.50;13.10;;;23.60;50.80;;;;;;214272;1306;22613;-52
2021/12/10 15:06:22;;;;;;;20.20;12.70;;;23.70;50.30;;;;;;214200;1306;22575;-50
2021/12/10 15:11:52;;;;;;;21.50;13.30;;;23.70;50.30;;;;;;214376;1306;22607;-52
2021/12/10 15:17:40;;;;;;;19.10;12.60;;;23.80;50.10;;;;;;214239;1310;22652;-53
2021/12/10 15:23:04;;;;;;;19.60;12.80;;;23.60;50.70;;;;;;214288;1306;25609;-51
2021/12/10 15:28:13;;;;;;;19.70;12.70;;;23.30;51.90;;;;;;214354;1306;25556;-51
2021/12/10 15:33:20;;;;;;;19.40;12.80;;;23.20;52.60;;;;;;214112;1306;22598;-56
2021/12/10 15:38:34;;;;;;;29.90;16.40;;;23.10;52.10;;;;;;213810;1306;24266;-54
2021/12/10 15:43:45;;;;;;;48.80;21.80;;;23.20;52.70;;;;;;214210;1309;22683;-54
2021/12/10 15:48:56;;;;;;;55.60;23.60;;;23.10;53.70;;;;;;213855;1306;25585;-52
2021/12/10 15:54:09;;;;;;;53.20;22.80;;;23.20;54.40;;;;;;214082;1306;25255;-51
2021/12/10 15:59:15;;;;;;;50.00;22.10;;;23.30;53.30;;;;;;213757;1307;369665;-51
2021/12/10 16:05:02;;;;;;;48.50;21.10;;;23.40;53.50;;;;;;214100;1306;24422;-53
2021/12/10 16:10:30;;;;;;;51.80;22.10;;;23.30;53.20;;;;;;214162;1311;22711;-53
2021/12/10 16:15:41;;;;;;;40.10;19.40;;;23.20;54.00;;;;;;214839;1309;22656;-53
2021/12/10 16:21:16;;;;;;;47.40;20.60;;;23.00;54.50;;;;;;214435;1309;23103;-51
2021/12/10 16:26:29;;;;;;;46.10;20.40;;;22.90;54.50;;;;;;214449;1309;24332;-51
2021/12/10 16:31:34;;;;;;;41.90;20.10;;;22.90;54.40;;;;;;214122;1308;27120;-52
2021/12/10 16:36:42;;;;;;;46.20;20.60;;;22.90;54.20;;;;;;214204;1309;25712;-54
2021/12/10 16:52:15;;;;;;;46.10;23.00;;;24.80;59.40;;;;;;207672;1345;542867;-60
2021/12/10 16:57:47;;;;;;;43.80;23.20;;;24.30;49.40;;;;;;212286;1322;22730;-62
2021/12/10 17:02:55;;;;;;;48.10;22.90;;;23.80;51.40;;;;;;212127;1319;481954;-59
2021/12/10 17:08:06;;;;;;;43.80;22.00;;;23.30;50.70;;;;;;212535;1319;22581;-60
2021/12/10 17:13:20;;;;;;;45.40;23.40;;;22.80;51.60;;;;;;212540;1318;24254;-60
2021/12/10 17:18:30;;;;;;;42.30;20.90;;;22.50;51.50;;;;;;212605;1319;22603;-60
2021/12/10 17:23:38;;;;;;;44.50;23.40;;;22.30;51.80;;;;;;212247;1319;22567;-57
2021/12/10 17:29:01;;;;;;;42.40;23.90;;;22.50;51.40;;;;;;212626;1326;23288;-55
2021/12/10 17:34:18;;;;;;;41.50;23.30;;;22.30;51.80;;;;;;212724;1326;22593;-56
2021/12/10 17:39:48;;;;;;;42.30;21.80;;;22.20;51.80;;;;;;212662;1322;25363;-53
2021/12/10 17:45:08;;;;;;;45.20;23.80;;;22.10;52.30;;;;;;212851;1322;25403;-51
2021/12/10 17:50:44;;;;;;;44.50;23.40;;;22.10;52.30;;;;;;212833;1328;24459;-52
2021/12/10 17:55:54;;;;;;;41.30;22.20;;;22.00;52.20;;;;;;212751;1328;22735;-53
2021/12/10 18:01:08;;;;;;;40.00;21.10;;;22.00;52.30;;;;;;212349;1319;22589;-51
2021/12/10 18:06:17;;;;;;;39.80;21.80;;;22.10;52.20;;;;;;212601;1319;24478;-54
2021/12/10 18:11:24;;;;;;;42.40;22.50;;;22.60;51.10;;;;;;212327;1322;22610;-53
2021/12/10 18:16:29;;;;;;;39.60;21.50;;;22.90;50.30;;;;;;212490;1319;25424;-56
2021/12/10 18:21:45;;;;;;;41.50;21.50;;;23.10;49.70;;;;;;212626;1322;22626;-54
2021/12/10 18:27:00;;;;;;;40.30;22.20;;;23.30;49.40;;;;;;212573;1322;22654;-54
2021/12/10 18:32:18;;;;;;;40.50;20.70;;;23.50;50.10;;;;;;212672;1322;22619;-54
2021/12/10 18:37:33;;;;;;;43.50;20.90;;;23.50;51.60;;;;;;212542;1322;25347;-55
2021/12/10 18:42:42;;;;;;;42.50;21.50;;;23.30;52.70;;;;;;212739;1322;25411;-54
2021/12/10 18:47:47;;;;;;;37.70;20.50;;;23.40;51.90;;;;;;212731;1322;22596;-55
2021/12/10 18:52:52;;;;;;;37.50;21.90;;;23.60;51.40;;;;;;212690;1322;27564;-55
2021/12/10 18:58:03;;;;;;;37.30;21.00;;;23.70;51.20;;;;;;212724;1327;24710;-55
2021/12/10 19:03:13;;;;;;;35.90;19.80;;;23.70;50.60;;;;;;212739;1323;24261;-57
2021/12/10 19:08:29;;;;;;;38.70;21.20;;;23.80;50.20;;;;;;212679;1319;25255;-51
2021/12/10 19:13:38;;;;;;;35.70;21.10;;;23.70;49.90;;;;;;212744;1325;22670;-53
2021/12/10 19:18:54;;;;;;;32.50;19.10;;;23.80;49.70;;;;;;212371;1322;26610;-55
2021/12/10 19:24:09;;;;;;;32.30;20.10;;;23.80;49.80;;;;;;212635;1321;24313;-52
2021/12/10 19:29:21;;;;;;;38.90;19.20;;;23.80;49.90;;;;;;212589;1319;22745;-54
2021/12/10 19:34:32;;;;;;;39.50;20.00;;;23.90;51.70;;;;;;212537;1322;22603;-53
2021/12/10 19:39:45;;;;;;;33.90;19.70;;;24.10;52.40;;;;;;212162;1322;24252;-54
2021/12/10 19:44:56;;;;;;;34.10;19.30;;;24.10;52.00;;;;;;212730;1322;22701;-53
2021/12/10 19:50:10;;;;;;;36.90;21.40;;;24.10;52.40;;;;;;212727;1322;25365;-54
2021/12/10 19:55:22;;;;;;;32.90;19.80;;;24.10;52.40;;;;;;213475;1315;25505;-52
2021/12/10 20:00:51;;;;;;;33.00;19.90;;;24.00;52.90;;;;;;213449;1315;22839;-54
2021/12/10 20:06:04;;;;;;;32.60;20.80;;;23.80;52.50;;;;;;213443;1316;23131;-56
2021/12/10 20:11:19;;;;;;;36.70;21.40;;;23.70;52.60;;;;;;213393;1320;22667;-54
2021/12/10 20:17:01;;;;;;;39.70;20.10;;;23.50;53.40;;;;;;213298;1321;24310;-51
2021/12/10 20:22:16;;;;;;;44.10;20.90;;;23.40;53.90;;;;;;213516;1316;23089;-52
2021/12/10 20:27:39;;;;;;;35.50;19.40;;;23.30;54.60;;;;;;213490;1319;23168;-55
2021/12/10 20:32:49;;;;;;;40.70;20.70;;;23.10;54.40;;;;;;213836;1319;24260;-55
2021/12/10 20:38:21;;;;;;;40.60;21.90;;;22.90;54.90;;;;;;213827;1317;22726;-52
2021/12/10 20:43:39;;;;;;;40.20;20.50;;;22.80;55.40;;;;;;213310;1319;26709;-54
2021/12/10 20:48:49;;;;;;;38.40;20.40;;;22.70;55.60;;;;;;213505;1315;22599;-51
2021/12/10 20:54:02;;;;;;;41.40;22.80;;;22.60;55.20;;;;;;213381;1315;22577;-51
2021/12/10 20:59:18;;;;;;;38.00;21.30;;;22.50;55.00;;;;;;213470;1316;25640;-55
2021/12/10 21:04:30;;;;;;;38.70;22.20;;;22.50;55.00;;;;;;213474;1316;22580;-55
2021/12/10 21:09:42;;;;;;;39.80;22.40;;;22.40;55.00;;;;;;213476;1313;24286;-54
2021/12/10 21:14:57;;;;;;;35.80;21.20;;;22.40;54.90;;;;;;213523;1322;22593;-54
2021/12/10 21:20:11;;;;;;;36.50;20.50;;;22.30;54.80;;;;;;213793;1319;25338;-54
2021/12/10 21:25:28;;;;;;;33.20;21.70;;;22.20;54.90;;;;;;213717;1319;25174;-54
2021/12/10 21:30:43;;;;;;;35.60;21.70;;;22.10;54.60;;;;;;213712;1313;24401;-55
2021/12/10 21:35:53;;;;;;;32.00;19.80;;;22.10;54.60;;;;;;213696;1320;22685;-55
2021/12/10 21:41:09;;;;;;;31.10;18.70;;;22.30;54.10;;;;;;213729;1320;22762;-52
2021/12/10 21:46:21;;;;;;;36.50;20.90;;;22.70;53.10;;;;;;213689;1320;25615;-53
2021/12/10 21:51:29;;;;;;;;;;;23.10;51.80;;;;;;213775;1319;22583;-53
2021/12/10 21:56:37;;;;;;;31.10;19.20;;;23.30;51.20;;;;;;214020;1319;22587;-56
2021/12/10 22:01:48;;;;;;;31.20;19.40;;;23.50;50.80;;;;;;213764;1319;22730;-54
2021/12/10 22:07:12;;;;;;;30.80;19.60;;;23.60;50.40;;;;;;213961;1319;25271;-53
2021/12/10 22:12:46;;;;;;;33.30;20.00;;;23.60;50.20;;;;;;213855;1319;22724;-53
2021/12/10 22:18:13;;;;;;;29.50;19.30;;;23.70;49.90;;;;;;213763;1319;24026;-54
2021/12/10 22:23:36;;;;;;;29.10;19.80;;;23.80;49.80;;;;;;213928;1319;25553;-58
2021/12/10 22:28:46;;;;;;;27.50;19.10;;;23.80;49.40;;;;;;214445;1319;22695;-55
2021/12/10 22:33:55;;;;;;;28.60;19.40;;;23.80;49.70;;;;;;214410;1319;24248;-55
2021/12/10 22:39:12;;;;;;;29.40;19.10;;;23.80;49.20;;;;;;213990;1313;22592;-55
2021/12/10 22:44:25;;;;;;;29.10;19.20;;;23.80;49.10;;;;;;213351;1317;24303;-53
2021/12/10 22:49:39;;;;;;;29.70;18.60;;;23.80;49.10;;;;;;213806;1314;24445;-56
2021/12/10 22:54:50;;;;;;;29.10;19.10;;;23.80;48.80;;;;;;214022;1319;25557;-55
2021/12/10 22:59:59;;;;;;;29.60;18.30;;;23.80;48.80;;;;;;214219;1319;22612;-56
2021/12/10 23:05:14;;;;;;;27.30;18.90;;;23.80;48.70;;;;;;214301;1318;24392;-55
2021/12/10 23:10:21;;;;;;;30.20;19.00;;;23.80;48.50;;;;;;213703;1319;24889;-55
2021/12/10 23:15:29;;;;;;;29.80;19.00;;;23.80;48.70;;;;;;213382;1313;24173;-57
2021/12/10 23:20:40;;;;;;;27.80;18.60;;;23.70;48.50;;;;;;213584;1313;22594;-55
2021/12/10 23:25:50;;;;;;;26.90;18.40;;;23.60;48.70;;;;;;214291;1309;25352;-55
2021/12/10 23:31:06;;;;;;;26.70;19.00;;;23.50;49.20;;;;;;214306;1310;25536;-55
2021/12/10 23:36:14;;;;;;;28.10;19.80;;;23.30;48.80;;;;;;214397;1318;22606;-53
2021/12/10 23:41:18;;;;;;;31.70;18.90;;;23.20;49.60;;;;;;214420;1312;22699;-51
2021/12/10 23:46:43;;;;;;;31.30;18.60;;;23.50;51.20;;;;;;214273;1312;25596;-53
2021/12/10 23:51:52;;;;;;;27.40;18.40;;;23.70;50.20;;;;;;214286;1312;24376;-53
2021/12/10 23:56:58;;;;;;;27.80;18.80;;;23.90;49.50;;;;;;214406;1319;22634;-53
